Time;durP1;ratioP1;P1;durP2;ratioP2;P2;SDS_P1;SDS_P2;PMS_P1;PMS_P2;Temp;Humidity;BMP_temperature;BMP_pressure;BME280_temperature;BME280_humidity;BME280_pressure;Samples;Min_cycle;Max_cycle;Signal;HPM_P1;HPM_P2
2022/07/01 00:01:07;;;;;;;5.07;1.75;;;16.00;99.90;;;;;;5048537;28;20069;-70
2022/07/01 00:03:34;;;;;;;7.68;1.70;;;16.00;99.90;;;;;;5034813;28;20045;-69
2022/07/01 00:06:00;;;;;;;6.32;1.52;;;16.00;99.90;;;;;;5033498;28;20224;-70
2022/07/01 00:08:25;;;;;;;5.00;1.50;;;16.00;99.90;;;;;;5046336;28;20155;-69
2022/07/01 00:10:51;;;;;;;6.15;1.67;;;15.90;99.90;;;;;;5042485;28;20094;-71
2022/07/01 00:13:17;;;;;;;5.88;1.60;;;16.00;99.90;;;;;;5047560;28;20061;-72
2022/07/01 00:15:42;;;;;;;5.65;1.75;;;15.90;99.90;;;;;;5033185;28;20058;-71
2022/07/01 00:18:08;;;;;;;6.30;1.73;;;15.90;99.90;;;;;;5048850;28;20472;-71
2022/07/01 00:20:34;;;;;;;6.75;2.33;;;15.90;99.90;;;;;;5054295;28;20400;-70
2022/07/01 00:23:00;;;;;;;6.38;1.88;;;16.00;99.90;;;;;;5039598;28;20046;-72
2022/07/01 00:25:25;;;;;;;7.70;1.85;;;15.90;99.90;;;;;;5034338;28;20049;-70
2022/07/01 00:27:51;;;;;;;4.50;1.63;;;15.90;99.90;;;;;;5045554;28;20376;-70
2022/07/01 00:30:17;;;;;;;6.05;1.60;;;15.90;99.90;;;;;;5035977;28;20060;-71
2022/07/01 00:32:42;;;;;;;7.57;1.95;;;15.90;99.90;;;;;;5046877;28;20049;-70
2022/07/01 00:35:09;;;;;;;7.28;1.60;;;15.90;99.90;;;;;;5041061;28;20041;-71
2022/07/01 00:37:35;;;;;;;6.55;1.90;;;15.90;99.90;;;;;;5039632;28;20045;-71
2022/07/01 00:40:00;;;;;;;6.25;1.98;;;15.90;99.90;;;;;;5033658;28;20392;-70
2022/07/01 00:42:26;;;;;;;5.80;1.60;;;15.90;99.90;;;;;;5044171;28;20048;-71
2022/07/01 00:44:52;;;;;;;6.63;1.70;;;15.90;99.90;;;;;;5038155;28;20071;-70
2022/07/01 00:47:18;;;;;;;6.18;1.83;;;15.90;99.90;;;;;;5052167;28;20468;-70
2022/07/01 00:49:44;;;;;;;5.65;1.67;;;15.90;99.90;;;;;;5038362;28;20503;-71
2022/07/01 00:52:10;;;;;;;5.63;1.67;;;15.90;99.90;;;;;;5032673;28;20052;-70
2022/07/01 00:54:37;;;;;;;5.82;1.65;;;15.90;99.90;;;;;;5037915;28;20041;-71
2022/07/01 00:57:10;;;;;;;4.50;1.85;;;15.90;99.90;;;;;;5044101;28;20049;-72
2022/07/01 00:59:37;;;;;;;7.18;2.05;;;16.00;99.90;;;;;;5047543;28;20116;-71
2022/07/01 01:02:05;;;;;;;5.93;2.10;;;16.00;99.90;;;;;;5032518;28;20061;-70
2022/07/01 01:04:32;;;;;;;5.75;2.00;;;15.90;99.90;;;;;;5033389;28;20057;-70
2022/07/01 01:07:00;;;;;;;5.10;1.85;;;15.90;99.90;;;;;;5032171;28;20042;-71
2022/07/01 01:09:25;;;;;;;6.18;1.67;;;15.90;99.90;;;;;;5046226;28;20479;-70
2022/07/01 01:11:51;;;;;;;4.95;1.70;;;15.90;99.90;;;;;;5046992;28;20128;-70
2022/07/01 01:14:17;;;;;;;5.07;1.70;;;15.90;99.90;;;;;;5024047;28;20065;-70
2022/07/01 01:16:43;;;;;;;5.03;1.63;;;16.00;99.90;;;;;;5045567;28;20087;-70
2022/07/01 01:19:08;;;;;;;4.55;1.50;;;16.00;99.90;;;;;;5033119;28;20044;-71
2022/07/01 01:21:34;;;;;;;5.47;1.70;;;15.90;99.90;;;;;;5032243;28;20362;-71
2022/07/01 01:24:00;;;;;;;3.90;1.45;;;16.00;99.90;;;;;;5032121;28;20056;-72
2022/07/01 01:26:26;;;;;;;5.68;1.67;;;16.00;99.90;;;;;;5032349;28;20124;-70
2022/07/01 01:28:52;;;;;;;6.03;1.30;;;16.00;99.90;;;;;;5051995;28;20041;-71
2022/07/01 01:31:30;;;;;;;4.40;1.50;;;16.00;99.90;;;;;;5049232;28;20049;-71
2022/07/01 01:33:57;;;;;;;3.90;1.42;;;15.90;99.90;;;;;;5033969;28;20057;-71
2022/07/01 01:36:23;;;;;;;5.47;1.48;;;15.90;99.90;;;;;;5046611;28;20045;-72
2022/07/01 01:38:48;;;;;;;4.72;1.42;;;15.90;99.90;;;;;;5048466;28;20045;-71
2022/07/01 01:41:14;;;;;;;4.15;1.40;;;15.90;99.90;;;;;;5047717;28;20045;-71
2022/07/01 01:43:40;;;;;;;3.83;1.45;;;15.90;99.90;;;;;;5051840;28;20159;-71
2022/07/01 01:46:05;;;;;;;3.63;1.30;;;15.90;99.90;;;;;;5053148;28;20483;-72
2022/07/01 01:48:31;;;;;;;5.50;1.40;;;15.90;99.90;;;;;;5031745;28;20045;-72
2022/07/01 01:50:57;;;;;;;4.82;1.50;;;15.90;99.90;;;;;;5032241;28;20140;-72
2022/07/01 01:53:23;;;;;;;4.78;1.33;;;15.90;99.90;;;;;;5032116;28;20120;-71
2022/07/01 01:55:50;;;;;;;5.20;1.40;;;15.90;99.90;;;;;;5046558;28;20049;-72
2022/07/01 01:58:16;;;;;;;3.70;1.30;;;15.90;99.90;;;;;;5046518;28;20099;-72
2022/07/01 02:00:41;;;;;;;3.72;1.20;;;15.90;99.90;;;;;;5033424;28;20041;-71
2022/07/01 02:03:07;;;;;;;4.70;1.20;;;15.90;99.90;;;;;;5032193;28;20075;-71
2022/07/01 02:05:35;;;;;;;5.85;1.40;;;15.90;99.90;;;;;;5041986;28;20055;-73
2022/07/01 02:08:02;;;;;;;4.85;1.50;;;15.90;99.90;;;;;;5029931;28;20053;-71
2022/07/01 02:10:28;;;;;;;5.38;1.30;;;15.80;99.90;;;;;;5051794;28;20503;-71
2022/07/01 02:12:53;;;;;;;3.95;1.33;;;15.80;99.90;;;;;;5043621;28;20076;-71
2022/07/01 02:15:20;;;;;;;3.70;1.20;;;15.80;99.90;;;;;;5030945;28;20092;-71
2022/07/01 02:17:45;;;;;;;3.78;1.30;;;15.80;99.90;;;;;;5030355;28;20088;-71
2022/07/01 02:20:14;;;;;;;5.38;1.40;;;15.80;99.90;;;;;;5031627;28;20073;-72
2022/07/01 02:22:41;;;;;;;5.32;1.48;;;15.80;99.90;;;;;;5031100;28;20073;-72
2022/07/01 02:25:08;;;;;;;5.55;1.40;;;15.80;99.90;;;;;;5032489;28;20116;-72
2022/07/01 02:27:34;;;;;;;4.45;1.35;;;15.70;99.90;;;;;;5027373;28;20483;-71
2022/07/01 02:29:59;;;;;;;4.95;1.52;;;15.80;99.90;;;;;;5051927;28;20078;-71
2022/07/01 02:32:25;;;;;;;4.13;1.52;;;15.70;99.90;;;;;;5037382;28;20220;-73
2022/07/01 02:34:51;;;;;;;5.10;1.70;;;15.70;99.90;;;;;;5031862;28;20042;-71
2022/07/01 02:37:17;;;;;;;4.75;1.58;;;15.70;99.90;;;;;;5032075;28;20049;-73
2022/07/01 02:39:43;;;;;;;5.60;1.60;;;15.60;99.90;;;;;;5034729;28;20561;-71
2022/07/01 02:42:25;;;;;;;5.45;1.70;;;15.70;99.90;;;;;;5041420;28;20052;-73
2022/07/01 02:44:54;;;;;;;5.50;2.15;;;15.70;99.90;;;;;;5032267;28;20107;-71
2022/07/01 02:47:21;;;;;;;5.28;2.20;;;15.70;99.90;;;;;;5036290;28;20045;-71
2022/07/01 02:49:47;;;;;;;6.40;2.50;;;15.70;99.90;;;;;;5037563;28;20065;-73
2022/07/01 02:52:15;;;;;;;5.80;3.50;;;15.60;99.90;;;;;;5055573;28;20547;-72
2022/07/01 02:54:41;;;;;;;7.13;4.97;;;15.70;99.90;;;;;;5040754;28;20092;-71
2022/07/01 02:57:07;;;;;;;8.02;6.05;;;15.70;99.90;;;;;;5046454;28;20053;-74
2022/07/01 02:59:33;;;;;;;12.40;9.48;;;15.70;99.90;;;;;;5047949;28;20579;-72
2022/07/01 03:01:58;;;;;;;12.43;11.13;;;15.70;99.90;;;;;;5041481;28;20468;-71
2022/07/01 03:04:24;;;;;;;12.10;10.52;;;15.70;99.90;;;;;;5055534;28;20057;-71
2022/07/01 03:06:50;;;;;;;16.30;13.85;;;15.70;99.90;;;;;;5038901;28;20046;-71
2022/07/01 03:09:15;;;;;;;14.90;13.30;;;15.80;99.90;;;;;;5035312;28;20041;-71
2022/07/01 03:11:41;;;;;;;16.67;14.70;;;15.80;99.90;;;;;;5017861;28;20053;-75
2022/07/01 03:14:07;;;;;;;15.65;14.05;;;15.70;99.90;;;;;;5047643;28;20057;-71
2022/07/01 03:16:32;;;;;;;17.27;14.70;;;15.70;99.90;;;;;;5034640;28;20093;-71
2022/07/01 03:18:58;;;;;;;24.00;20.48;;;15.70;99.90;;;;;;5019174;28;20488;-71
2022/07/01 03:21:24;;;;;;;19.40;17.35;;;15.70;99.90;;;;;;5044530;28;20045;-72
2022/07/01 03:23:49;;;;;;;22.13;19.15;;;15.70;99.90;;;;;;5035087;28;20128;-70
2022/07/01 03:26:15;;;;;;;18.90;16.27;;;15.70;99.90;;;;;;5043370;28;20052;-72
2022/07/01 03:28:41;;;;;;;20.95;17.70;;;15.70;99.90;;;;;;5040514;28;20088;-70
2022/07/01 03:31:07;;;;;;;19.42;16.02;;;15.70;99.90;;;;;;5041253;28;20048;-71
2022/07/01 03:33:32;;;;;;;19.15;16.40;;;15.60;99.90;;;;;;5043071;28;20045;-72
2022/07/01 03:35:58;;;;;;;19.35;16.13;;;15.60;99.90;;;;;;5051695;28;20116;-70
2022/07/01 03:38:24;;;;;;;17.27;14.85;;;15.60;99.90;;;;;;5037316;28;20049;-71
2022/07/01 03:40:50;;;;;;;17.95;15.45;;;15.60;99.90;;;;;;5037649;28;20388;-70
2022/07/01 03:43:15;;;;;;;15.60;13.55;;;15.60;99.90;;;;;;5042207;28;20040;-70
2022/07/01 03:45:41;;;;;;;15.05;12.10;;;15.50;99.90;;;;;;5041350;28;20435;-71
2022/07/01 03:48:07;;;;;;;14.80;12.48;;;15.50;99.90;;;;;;5047875;28;20396;-71
2022/07/01 03:50:33;;;;;;;14.68;12.32;;;15.50;99.90;;;;;;5046970;28;20052;-73
2022/07/01 03:55:42;;;;;;;17.30;13.85;;;15.40;99.90;;;;;;5047136;28;20059;-71
2022/07/01 03:58:08;;;;;;;15.75;12.82;;;15.40;99.90;;;;;;5053648;28;20140;-72
2022/07/01 04:00:35;;;;;;;18.10;14.35;;;15.30;99.90;;;;;;5033650;28;20041;-71
2022/07/01 04:03:02;;;;;;;16.20;13.82;;;15.30;99.90;;;;;;5035423;28;20052;-71
2022/07/01 04:05:28;;;;;;;20.23;15.93;;;15.30;99.90;;;;;;5045849;28;20063;-71
2022/07/01 04:07:54;;;;;;;20.90;16.98;;;15.30;99.90;;;;;;5046402;28;20578;-71
2022/07/01 04:10:19;;;;;;;18.52;13.90;;;15.30;99.90;;;;;;5046943;28;20124;-71
2022/07/01 04:12:45;;;;;;;16.73;14.68;;;15.30;99.90;;;;;;5037795;28;20041;-70
2022/07/01 04:15:11;;;;;;;20.15;16.88;;;15.30;99.90;;;;;;5047551;28;20140;-71
2022/07/01 04:17:37;;;;;;;17.33;15.38;;;15.30;99.90;;;;;;5047380;28;20092;-71
2022/07/01 04:20:03;;;;;;;21.00;17.73;;;15.30;99.90;;;;;;5046078;28;20045;-71
2022/07/01 04:22:37;;;;;;;25.52;19.38;;;15.30;99.90;;;;;;5052735;28;20049;-71
2022/07/01 04:25:04;;;;;;;19.80;17.63;;;15.30;99.90;;;;;;5041647;28;20061;-72
2022/07/01 04:27:33;;;;;;;22.23;19.38;;;15.30;99.90;;;;;;5029924;28;20049;-71
2022/07/01 04:30:02;;;;;;;24.30;19.63;;;15.30;99.90;;;;;;5033577;28;20056;-71
2022/07/01 04:32:28;;;;;;;25.38;21.58;;;15.40;99.90;;;;;;5049803;28;20053;-71
2022/07/01 04:34:53;;;;;;;26.63;22.05;;;15.30;99.90;;;;;;5053007;28;20048;-70
2022/07/01 04:37:19;;;;;;;32.17;24.70;;;15.30;99.90;;;;;;5052380;28;20049;-70
2022/07/01 04:39:45;;;;;;;33.53;28.00;;;15.30;99.90;;;;;;5041104;28;20041;-71
2022/07/01 04:42:11;;;;;;;28.85;24.08;;;15.20;99.90;;;;;;5051979;28;20098;-71
2022/07/01 04:44:37;;;;;;;32.83;25.52;;;15.20;99.90;;;;;;5034128;28;20500;-70
2022/07/01 04:47:04;;;;;;;27.95;24.20;;;15.20;99.90;;;;;;5045029;28;20507;-72
2022/07/01 04:49:30;;;;;;;29.15;25.13;;;15.30;99.90;;;;;;5035456;28;20179;-71
2022/07/01 04:51:57;;;;;;;32.58;26.25;;;15.30;99.90;;;;;;5034003;28;20045;-71
2022/07/01 04:54:25;;;;;;;31.77;27.38;;;15.30;99.90;;;;;;5017064;28;20060;-72
2022/07/01 04:56:52;;;;;;;30.00;25.45;;;15.30;99.90;;;;;;5048966;28;20049;-72
2022/07/01 04:59:19;;;;;;;34.20;28.13;;;15.20;99.90;;;;;;5029535;28;20206;-71
2022/07/01 05:01:48;;;;;;;33.13;28.00;;;15.10;99.90;;;;;;5052708;28;20055;-71
2022/07/01 05:04:15;;;;;;;30.33;26.92;;;15.10;99.90;;;;;;5052449;28;20051;-70
2022/07/01 05:06:41;;;;;;;31.98;26.77;;;15.10;99.90;;;;;;5033882;28;20047;-72
2022/07/01 05:09:06;;;;;;;33.13;28.75;;;15.10;99.90;;;;;;5036790;28;20116;-70
2022/07/01 05:11:33;;;;;;;35.28;28.88;;;15.20;99.90;;;;;;5052268;28;20128;-70
2022/07/01 05:13:59;;;;;;;33.60;29.35;;;15.10;99.90;;;;;;5034965;28;20136;-70
2022/07/01 05:16:24;;;;;;;29.75;26.55;;;15.10;99.90;;;;;;5033486;28;20049;-71
2022/07/01 05:24:18;;;;;;;35.95;29.58;;;15.20;99.90;;;;;;5037999;28;20056;-71
2022/07/01 05:26:44;;;;;;;31.65;28.25;;;15.20;99.90;;;;;;5050559;28;20048;-72
2022/07/01 05:29:10;;;;;;;32.75;28.73;;;15.20;99.90;;;;;;5035461;28;20049;-72
2022/07/01 05:31:36;;;;;;;32.35;27.48;;;15.20;99.90;;;;;;5032350;28;20041;-71
2022/07/01 05:34:02;;;;;;;31.70;27.30;;;15.20;99.90;;;;;;5044006;28;20456;-71
2022/07/01 05:36:28;;;;;;;33.10;28.45;;;15.30;99.90;;;;;;5035669;28;20083;-70
2022/07/01 05:38:53;;;;;;;33.17;28.65;;;15.30;99.90;;;;;;5031801;28;20050;-71
2022/07/01 05:41:19;;;;;;;32.65;29.15;;;15.30;99.90;;;;;;5032059;28;20499;-71
2022/07/01 05:43:45;;;;;;;32.45;28.85;;;15.40;99.90;;;;;;5032198;28;20125;-70
2022/07/01 05:46:11;;;;;;;30.38;26.55;;;15.40;99.90;;;;;;5048074;28;20482;-71
2022/07/01 05:48:36;;;;;;;33.25;29.50;;;15.50;99.90;;;;;;5032621;28;20049;-70
2022/07/01 05:51:02;;;;;;;34.38;30.60;;;15.50;99.90;;;;;;5032813;28;20435;-70
2022/07/01 05:53:28;;;;;;;36.40;31.58;;;15.60;99.90;;;;;;5047804;28;20048;-71
2022/07/01 05:55:54;;;;;;;39.60;34.40;;;15.60;99.90;;;;;;5051654;28;20102;-70
2022/07/01 05:58:20;;;;;;;33.08;29.55;;;15.70;99.90;;;;;;5031690;28;20136;-71
2022/07/01 06:00:45;;;;;;;33.90;30.23;;;15.80;99.90;;;;;;5032697;28;20041;-71
2022/07/01 06:03:13;;;;;;;32.15;28.75;;;15.90;99.90;;;;;;5033636;28;20080;-71
2022/07/01 06:05:39;;;;;;;33.15;29.60;;;15.90;99.90;;;;;;5031693;28;20115;-72
2022/07/01 06:08:06;;;;;;;31.40;28.10;;;15.90;99.90;;;;;;5034525;28;20120;-70
2022/07/01 06:10:32;;;;;;;33.67;30.05;;;15.90;99.90;;;;;;5038359;28;20041;-71
2022/07/01 06:12:58;;;;;;;31.50;28.17;;;15.90;99.90;;;;;;5040382;28;20049;-71
2022/07/01 06:15:24;;;;;;;33.97;30.27;;;16.00;99.90;;;;;;5034857;28;20111;-71
2022/07/01 06:17:50;;;;;;;32.10;28.80;;;16.00;99.90;;;;;;5050781;28;20045;-70
2022/07/01 06:20:16;;;;;;;35.60;31.27;;;16.00;99.90;;;;;;5036741;28;20373;-70
2022/07/01 06:22:42;;;;;;;31.05;27.88;;;16.00;99.90;;;;;;5044386;28;20095;-70
2022/07/01 06:25:08;;;;;;;32.47;29.02;;;16.00;99.90;;;;;;5032461;28;20038;-71
2022/07/01 06:27:43;;;;;;;35.22;31.60;;;16.10;99.90;;;;;;5030215;28;20045;-72
2022/07/01 06:30:10;;;;;;;35.05;31.30;;;16.20;99.90;;;;;;5032654;28;20045;-72
2022/07/01 06:32:36;;;;;;;32.60;29.20;;;16.30;99.90;;;;;;5035830;28;20051;-70
2022/07/01 06:35:02;;;;;;;34.60;31.00;;;16.40;99.90;;;;;;5031371;28;20058;-70
2022/07/01 06:37:30;;;;;;;34.38;30.88;;;16.30;99.90;;;;;;5045531;28;20049;-71
2022/07/01 06:39:56;;;;;;;32.90;29.55;;;16.50;99.90;;;;;;5031111;28;20484;-71
2022/07/01 06:42:23;;;;;;;31.35;27.95;;;16.50;99.90;;;;;;5030720;28;20052;-70
2022/07/01 06:44:48;;;;;;;35.85;32.03;;;16.50;99.90;;;;;;5032655;28;20099;-70
2022/07/01 06:47:14;;;;;;;32.42;28.95;;;16.60;99.90;;;;;;5043533;28;20492;-70
2022/07/01 06:49:40;;;;;;;32.67;29.27;;;16.60;99.90;;;;;;5037819;28;20099;-70
2022/07/01 06:52:06;;;;;;;30.75;27.55;;;16.80;99.90;;;;;;5050873;28;20439;-71
2022/07/01 06:54:32;;;;;;;31.35;28.15;;;16.90;99.90;;;;;;5051798;28;20280;-70
2022/07/01 06:56:57;;;;;;;33.13;29.42;;;16.90;99.90;;;;;;5051814;28;20124;-72
2022/07/01 06:59:23;;;;;;;29.85;26.75;;;16.90;99.90;;;;;;5037036;28;20068;-72
2022/07/01 07:01:49;;;;;;;31.77;28.38;;;16.90;99.90;;;;;;5017345;28;20373;-72
2022/07/01 07:04:15;;;;;;;29.60;26.60;;;17.00;99.90;;;;;;5038242;28;20129;-70
2022/07/01 07:06:41;;;;;;;31.63;28.23;;;16.90;99.90;;;;;;5038600;28;20053;-70
2022/07/01 07:09:06;;;;;;;32.72;29.23;;;16.80;99.90;;;;;;5034918;28;20040;-70
2022/07/01 07:11:32;;;;;;;28.67;25.75;;;16.70;99.90;;;;;;5051991;28;20124;-72
2022/07/01 07:13:58;;;;;;;31.20;27.88;;;16.70;99.90;;;;;;5050565;28;20500;-70
2022/07/01 07:16:24;;;;;;;31.95;28.30;;;16.60;99.90;;;;;;5040106;28;20480;-71
2022/07/01 07:18:50;;;;;;;29.17;26.08;;;16.70;99.90;;;;;;5043812;28;20049;-71
2022/07/01 07:21:16;;;;;;;31.60;28.30;;;16.70;99.90;;;;;;5030740;28;20398;-71
2022/07/01 07:23:42;;;;;;;28.63;25.75;;;16.80;99.90;;;;;;5031854;28;20058;-71
2022/07/01 07:26:09;;;;;;;29.42;26.42;;;16.70;99.90;;;;;;5043879;28;20454;-73
2022/07/01 07:28:35;;;;;;;29.17;26.08;;;16.70;99.90;;;;;;5029862;28;20054;-71
2022/07/01 07:31:01;;;;;;;31.63;28.08;;;16.80;99.90;;;;;;5038830;28;20135;-72
2022/07/01 07:33:26;;;;;;;31.23;27.98;;;16.80;99.90;;;;;;5055190;28;20041;-70
2022/07/01 07:35:52;;;;;;;30.88;27.77;;;16.80;99.90;;;;;;5052219;28;20045;-71
2022/07/01 07:38:18;;;;;;;31.25;27.20;;;16.80;99.90;;;;;;5042644;28;20068;-71
2022/07/01 07:40:44;;;;;;;31.27;28.13;;;16.80;99.90;;;;;;5039409;28;20041;-71
2022/07/01 07:43:09;;;;;;;32.33;28.88;;;16.90;99.90;;;;;;5054311;28;20111;-71
2022/07/01 07:45:35;;;;;;;31.95;27.63;;;16.90;99.90;;;;;;5041836;28;20046;-72
2022/07/01 07:48:02;;;;;;;31.65;28.15;;;17.10;99.90;;;;;;5039486;28;20045;-71
2022/07/01 07:50:28;;;;;;;30.55;26.08;;;17.20;99.90;;;;;;5053906;28;20128;-71
2022/07/01 07:52:53;;;;;;;29.13;26.13;;;17.40;99.90;;;;;;5050061;28;20108;-71
2022/07/01 07:55:19;;;;;;;29.48;26.58;;;17.40;99.90;;;;;;5044048;28;20048;-71
2022/07/01 07:57:45;;;;;;;30.75;27.65;;;17.50;99.90;;;;;;5037949;28;20495;-70
2022/07/01 08:00:12;;;;;;;31.80;28.50;;;17.60;99.90;;;;;;5041809;28;20041;-73
2022/07/01 08:02:40;;;;;;;32.83;29.42;;;17.50;99.90;;;;;;5040140;28;20385;-71
2022/07/01 08:05:07;;;;;;;26.63;23.90;;;17.60;99.90;;;;;;5047583;28;20046;-71
2022/07/01 08:07:38;;;;;;;27.58;24.67;;;17.70;99.90;;;;;;5034572;28;20056;-71
2022/07/01 08:10:05;;;;;;;27.75;24.88;;;17.80;99.90;;;;;;5033691;28;20076;-70
2022/07/01 08:12:31;;;;;;;27.48;24.67;;;17.80;99.90;;;;;;5046846;28;20075;-70
2022/07/01 08:14:57;;;;;;;28.15;25.27;;;17.80;99.90;;;;;;5040396;28;20485;-70
2022/07/01 08:17:23;;;;;;;29.23;25.05;;;17.90;99.90;;;;;;5037965;28;20124;-70
2022/07/01 08:19:50;;;;;;;26.35;23.45;;;18.00;99.90;;;;;;5054358;28;20504;-71
2022/07/01 08:22:16;;;;;;;27.25;24.52;;;18.10;99.90;;;;;;5035485;28;20061;-71
2022/07/01 08:24:41;;;;;;;24.83;21.27;;;18.20;99.90;;;;;;5043789;28;20167;-70
2022/07/01 08:27:07;;;;;;;24.92;22.02;;;18.20;99.90;;;;;;5051963;28;20044;-75
2022/07/01 08:29:33;;;;;;;24.38;21.88;;;18.20;99.90;;;;;;5041857;28;20068;-72
2022/07/01 08:31:59;;;;;;;24.65;22.05;;;18.30;99.90;;;;;;5040105;28;20057;-72
2022/07/01 08:34:25;;;;;;;24.98;21.70;;;18.50;99.90;;;;;;5038963;28;20099;-72
2022/07/01 08:36:50;;;;;;;22.90;20.52;;;18.70;99.90;;;;;;5041751;28;20099;-73
2022/07/01 08:39:16;;;;;;;26.92;22.73;;;19.00;99.90;;;;;;5036599;28;20052;-71
2022/07/01 08:41:42;;;;;;;24.02;21.48;;;19.30;99.90;;;;;;5052745;28;20045;-71
2022/07/01 08:44:08;;;;;;;22.90;19.25;;;19.40;99.90;;;;;;5033036;28;20488;-72
2022/07/01 08:46:35;;;;;;;21.17;18.88;;;19.80;99.90;;;;;;5053332;28;20080;-71
2022/07/01 08:49:01;;;;;;;22.23;19.15;;;19.90;99.90;;;;;;5052409;28;20396;-70
2022/07/01 08:51:27;;;;;;;23.70;19.33;;;20.20;99.90;;;;;;5048323;28;20065;-72
2022/07/01 08:53:52;;;;;;;19.77;17.63;;;20.60;99.90;;;;;;5045063;28;20048;-72
2022/07/01 08:59:05;;;;;;;19.77;16.23;;;21.10;99.90;;;;;;5044576;28;20087;-73
2022/07/01 09:01:32;;;;;;;19.23;14.93;;;21.00;99.90;;;;;;5053300;28;20076;-72
2022/07/01 09:04:12;;;;;;;15.50;12.80;;;20.60;99.90;;;;;;5053879;28;20059;-72
2022/07/01 09:06:38;;;;;;;17.33;13.48;;;20.80;99.90;;;;;;5017623;28;20081;-74
2022/07/01 09:09:20;;;;;;;17.90;13.02;;;20.90;99.90;;;;;;5036450;28;20075;-72
2022/07/01 09:11:53;;;;;;;14.60;12.68;;;20.70;99.90;;;;;;5052427;28;20059;-72
2022/07/01 09:14:24;;;;;;;16.42;11.52;;;21.00;99.90;;;;;;5044794;28;20084;-72
2022/07/01 09:16:53;;;;;;;14.27;10.90;;;21.10;99.90;;;;;;5032554;28;20481;-70
2022/07/01 09:19:20;;;;;;;16.60;12.38;;;21.30;99.90;;;;;;5045125;28;20794;-71
2022/07/01 09:21:51;;;;;;;14.77;11.70;;;21.50;99.90;;;;;;5045077;28;20055;-71
2022/07/01 09:24:33;;;;;;;14.07;9.83;;;21.40;99.90;;;;;;5038675;28;20071;-71
2022/07/01 09:27:11;;;;;;;13.50;9.60;;;21.20;99.90;;;;;;5052985;28;20435;-71
2022/07/01 09:29:39;;;;;;;13.95;9.65;;;21.20;99.90;;;;;;5045955;28;20049;-71
2022/07/01 09:32:07;;;;;;;13.75;9.38;;;21.20;99.90;;;;;;5031623;28;20060;-74
2022/07/01 09:34:44;;;;;;;15.02;10.45;;;21.10;99.90;;;;;;5038378;28;20056;-72
2022/07/01 09:37:16;;;;;;;12.23;9.40;;;21.00;99.90;;;;;;5051817;28;20044;-70
2022/07/01 09:39:56;;;;;;;13.93;10.05;;;20.80;99.90;;;;;;5031899;28;20049;-71
2022/07/01 09:42:24;;;;;;;13.23;9.85;;;20.60;99.90;;;;;;5028325;28;20052;-71
2022/07/01 09:45:10;;;;;;;15.40;9.52;;;20.40;99.90;;;;;;5038730;28;20485;-71
2022/07/01 09:47:39;;;;;;;14.05;8.90;;;20.40;99.90;;;;;;5047904;28;20057;-71
2022/07/01 09:50:07;;;;;;;14.43;9.43;;;20.30;99.90;;;;;;5031993;28;20050;-72
2022/07/01 09:52:33;;;;;;;14.85;9.27;;;20.20;99.90;;;;;;5031185;28;20053;-76
2022/07/01 09:55:00;;;;;;;13.07;8.70;;;20.30;99.90;;;;;;5046400;28;20144;-72
2022/07/01 09:57:25;;;;;;;13.27;8.60;;;20.40;99.90;;;;;;5031790;28;20146;-71
2022/07/01 09:59:52;;;;;;;13.05;7.55;;;20.40;99.90;;;;;;5046595;28;20045;-71
2022/07/01 10:02:19;;;;;;;15.00;8.70;;;20.40;99.90;;;;;;5041975;28;20057;-71
2022/07/01 10:04:53;;;;;;;12.80;8.77;;;20.40;99.90;;;;;;5035335;28;20508;-72
2022/07/01 10:07:37;;;;;;;12.10;8.48;;;20.40;99.90;;;;;;5014436;28;20061;-74
2022/07/01 10:10:14;;;;;;;12.60;8.88;;;20.40;99.90;;;;;;5044515;28;20052;-72
2022/07/01 10:12:43;;;;;;;11.85;7.60;;;20.40;99.90;;;;;;5050537;28;20484;-71
2022/07/01 10:15:14;;;;;;;11.85;6.57;;;20.30;99.90;;;;;;5050475;28;20403;-71
2022/07/01 10:17:46;;;;;;;11.85;6.80;;;20.50;99.90;;;;;;5043786;28;20459;-71
2022/07/01 10:20:19;;;;;;;13.98;7.30;;;20.70;99.90;;;;;;5045930;28;20069;-72
2022/07/01 10:22:45;;;;;;;11.65;6.80;;;21.00;99.90;;;;;;5044584;28;20132;-73
2022/07/01 10:25:34;;;;;;;9.93;6.07;;;21.10;99.90;;;;;;5045703;28;20476;-71
2022/07/01 10:28:52;;;;;;;9.63;5.40;;;21.10;99.80;;;;;;5051629;28;20045;-72
2022/07/01 10:31:18;;;;;;;9.82;5.85;;;21.30;99.90;;;;;;5040290;28;20057;-72
2022/07/01 10:33:53;;;;;;;10.30;6.28;;;21.40;99.90;;;;;;5030891;28;20068;-72
2022/07/01 10:36:27;;;;;;;10.00;6.65;;;21.50;99.90;;;;;;5032319;28;20048;-73
2022/07/01 10:39:06;;;;;;;12.27;7.05;;;21.50;99.40;;;;;;5030920;28;20049;-71
2022/07/01 10:41:55;;;;;;;11.40;6.82;;;21.40;99.60;;;;;;5039900;28;20119;-70
2022/07/01 10:44:23;;;;;;;13.00;6.80;;;21.60;99.90;;;;;;5034015;28;20053;-71
2022/07/01 10:46:57;;;;;;;12.55;6.25;;;21.90;99.90;;;;;;5040220;28;20057;-72
2022/07/01 10:49:35;;;;;;;12.02;6.30;;;22.10;99.90;;;;;;5034478;28;20049;-71
2022/07/01 10:52:05;;;;;;;9.38;5.50;;;22.10;98.10;;;;;;5032458;28;20111;-74
2022/07/01 10:54:34;;;;;;;7.47;4.60;;;22.00;97.80;;;;;;5030473;28;20504;-71
2022/07/01 10:57:41;;;;;;;10.15;4.65;;;21.90;96.90;;;;;;5031453;28;20045;-72
2022/07/01 11:00:07;;;;;;;7.57;3.85;;;21.80;96.20;;;;;;5030512;28;20108;-71
2022/07/01 11:02:37;;;;;;;7.55;4.10;;;21.90;95.50;;;;;;5044422;28;20045;-71
2022/07/01 11:05:07;;;;;;;6.93;3.80;;;22.00;96.30;;;;;;5052899;28;20084;-75
2022/07/01 11:07:34;;;;;;;9.35;4.50;;;22.40;97.10;;;;;;5035121;28;20484;-71
2022/07/01 11:10:02;;;;;;;7.97;4.20;;;22.60;96.60;;;;;;5047346;28;20045;-72
2022/07/01 11:12:29;;;;;;;8.75;4.00;;;22.70;96.80;;;;;;5042285;28;20464;-71
2022/07/01 11:14:58;;;;;;;8.13;3.78;;;23.00;97.50;;;;;;5042034;28;20068;-71
2022/07/01 11:17:25;;;;;;;10.35;3.80;;;23.20;93.30;;;;;;5054240;28;20056;-70
2022/07/01 11:20:01;;;;;;;7.97;4.05;;;23.20;94.00;;;;;;5043622;28;20128;-71
2022/07/01 11:22:29;;;;;;;7.53;3.38;;;23.20;92.20;;;;;;5034160;28;20088;-71
2022/07/01 11:24:58;;;;;;;6.60;2.80;;;23.20;93.80;;;;;;5035722;28;20064;-70
2022/07/01 11:27:27;;;;;;;7.22;2.72;;;23.40;93.30;;;;;;5036422;28;20051;-71
2022/07/01 11:29:58;;;;;;;6.82;2.53;;;23.50;90.80;;;;;;5018149;28;20053;-71
2022/07/01 11:32:33;;;;;;;6.63;2.38;;;23.50;88.60;;;;;;5064564;28;20049;-72
2022/07/01 11:35:01;;;;;;;8.00;2.60;;;23.60;89.00;;;;;;5044132;28;20053;-71
2022/07/01 11:40:17;;;;;;;6.82;2.83;;;23.80;86.30;;;;;;5044062;28;20056;-73
2022/07/01 11:42:44;;;;;;;8.88;2.83;;;23.90;89.50;;;;;;5032455;28;20092;-72
2022/07/01 11:45:25;;;;;;;7.40;2.42;;;24.00;88.50;;;;;;5037902;28;20098;-71
2022/07/01 11:47:51;;;;;;;6.37;2.43;;;24.20;90.20;;;;;;5052356;28;20052;-72
2022/07/01 11:50:17;;;;;;;6.97;2.45;;;24.40;85.40;;;;;;5054056;28;20179;-73
2022/07/01 11:52:43;;;;;;;7.03;2.60;;;24.30;80.30;;;;;;5033297;28;20135;-71
2022/07/01 11:55:09;;;;;;;6.50;2.33;;;24.20;86.60;;;;;;5034387;28;20498;-73
2022/07/01 11:57:34;;;;;;;6.30;2.50;;;24.20;84.80;;;;;;5033043;28;20088;-74
2022/07/01 12:00:09;;;;;;;7.10;2.75;;;24.20;88.50;;;;;;5054350;28;20442;-76
2022/07/01 12:02:35;;;;;;;7.50;2.83;;;24.20;84.60;;;;;;5053490;28;20471;-73
2022/07/01 12:05:02;;;;;;;7.45;2.90;;;24.30;83.00;;;;;;5053558;28;20045;-74
2022/07/01 12:07:28;;;;;;;8.75;3.13;;;24.30;81.80;;;;;;5034921;28;20053;-71
2022/07/01 12:09:53;;;;;;;7.40;3.00;;;23.90;79.50;;;;;;5033644;28;20046;-71
2022/07/01 12:12:22;;;;;;;7.45;2.78;;;23.50;81.90;;;;;;5045109;28;20400;-71
2022/07/01 12:15:13;;;;;;;6.97;2.42;;;23.10;83.50;;;;;;5045824;28;20060;-71
2022/07/01 12:17:39;;;;;;;9.02;2.70;;;22.90;88.80;;;;;;5033276;28;20055;-71
2022/07/01 12:20:06;;;;;;;6.90;2.40;;;23.10;91.40;;;;;;5046517;28;20124;-71
2022/07/01 12:22:31;;;;;;;6.22;2.10;;;23.30;89.10;;;;;;5035453;28;20499;-71
2022/07/01 12:25:09;;;;;;;7.05;2.30;;;23.50;87.90;;;;;;5033574;28;20132;-72
2022/07/01 12:27:38;;;;;;;7.53;2.30;;;23.60;89.70;;;;;;5030762;28;20049;-71
2022/07/01 12:30:05;;;;;;;6.30;2.25;;;23.50;87.80;;;;;;5033431;28;20055;-72
2022/07/01 12:32:35;;;;;;;8.32;2.30;;;23.40;84.30;;;;;;5032681;28;20042;-71
2022/07/01 12:35:03;;;;;;;7.32;2.13;;;23.10;84.40;;;;;;5033332;28;20081;-73
2022/07/01 12:37:31;;;;;;;6.20;2.20;;;22.70;85.70;;;;;;5033668;28;20080;-71
2022/07/01 12:40:05;;;;;;;7.00;2.00;;;22.20;87.00;;;;;;5041862;28;20442;-71
2022/07/01 12:42:42;;;;;;;6.72;1.83;;;22.10;89.10;;;;;;5051086;28;20048;-71
2022/07/01 12:45:11;;;;;;;8.48;2.10;;;21.80;90.10;;;;;;5053346;28;20056;-71
2022/07/01 12:47:44;;;;;;;6.38;1.85;;;21.90;92.20;;;;;;5037888;28;20049;-71
2022/07/01 12:50:10;;;;;;;6.22;1.80;;;22.20;95.30;;;;;;5044399;28;20077;-70
2022/07/01 12:52:37;;;;;;;7.55;1.90;;;22.50;93.40;;;;;;5034242;28;20559;-72